Time;durP1;ratioP1;P1;durP2;ratioP2;P2;SDS_P1;SDS_P2;PMS_P1;PMS_P2;Temp;Humidity;BMP_temperature;BMP_pressure;BME280_temperature;BME280_humidity;BME280_pressure;Samples;Min_cycle;Max_cycle;Signal;HPM_P1;HPM_P2
2021/11/20 00:00:29;;;;;;;19.40;9.50;;;7.90;95.10;;;;;;5024298;28;20029;-70
2021/11/20 00:02:55;;;;;;;16.15;7.75;;;7.70;95.50;;;;;;5023474;28;20034;-70
2021/11/20 00:05:26;;;;;;;18.70;8.90;;;7.60;95.60;;;;;;5024201;28;20335;-70
2021/11/20 00:07:52;;;;;;;15.70;8.18;;;7.60;95.80;;;;;;5023435;28;20088;-70
2021/11/20 00:10:22;;;;;;;16.83;8.57;;;7.70;95.70;;;;;;5024185;28;20033;-70
2021/11/20 00:12:48;;;;;;;20.10;9.20;;;7.70;95.50;;;;;;5024120;28;20053;-70
2021/11/20 00:15:18;;;;;;;19.15;10.00;;;7.70;95.50;;;;;;5024035;28;20256;-70
2021/11/20 00:17:44;;;;;;;18.15;8.18;;;7.70;95.50;;;;;;5023527;28;20351;-68
2021/11/20 00:20:12;;;;;;;19.97;9.23;;;7.70;95.60;;;;;;5024032;28;20081;-68
2021/11/20 00:22:40;;;;;;;21.83;10.00;;;7.70;95.50;;;;;;5023523;28;20029;-68
2021/11/20 00:25:20;;;;;;;24.10;11.45;;;7.60;95.70;;;;;;5006536;28;20025;-69
2021/11/20 00:27:46;;;;;;;24.83;13.00;;;7.70;95.70;;;;;;5022802;28;20032;-69
2021/11/20 00:30:18;;;;;;;20.15;10.15;;;7.60;95.70;;;;;;5022891;28;20017;-69
2021/11/20 00:32:51;;;;;;;18.30;9.23;;;7.60;95.70;;;;;;5023872;28;20032;-69
2021/11/20 00:35:20;;;;;;;20.45;9.40;;;7.60;95.60;;;;;;5023214;28;20085;-69
2021/11/20 00:37:46;;;;;;;21.85;10.43;;;7.60;95.60;;;;;;5023482;28;20026;-69
2021/11/20 00:40:21;;;;;;;19.47;9.23;;;7.60;95.70;;;;;;5023539;28;20028;-69
2021/11/20 00:42:46;;;;;;;17.95;9.23;;;7.50;95.80;;;;;;5022538;28;20022;-69
2021/11/20 00:45:12;;;;;;;20.57;8.90;;;7.40;96.00;;;;;;5023696;28;20129;-69
2021/11/20 00:47:38;;;;;;;17.60;8.93;;;7.40;96.10;;;;;;5023493;28;20287;-69
2021/11/20 00:50:05;;;;;;;22.00;10.48;;;7.50;95.90;;;;;;5023368;28;20026;-69
2021/11/20 00:52:31;;;;;;;;;;;7.50;95.90;;;;;;5022310;28;20021;-69
2021/11/20 00:54:57;;;;;;;16.73;7.85;;;7.50;95.80;;;;;;5023220;28;20224;-69
2021/11/20 00:57:23;;;;;;;19.60;9.00;;;7.50;95.90;;;;;;5023412;28;20026;-69
2021/11/20 00:59:48;;;;;;;24.23;10.52;;;7.40;96.10;;;;;;5023410;28;20268;-68
2021/11/20 01:02:14;;;;;;;19.13;9.20;;;7.40;96.00;;;;;;5023011;28;20080;-69
2021/11/20 01:04:40;;;;;;;19.83;9.17;;;7.50;96.00;;;;;;5023358;28;20021;-69
2021/11/20 01:07:07;;;;;;;19.48;9.23;;;7.50;95.90;;;;;;5005383;28;20224;-69
2021/11/20 01:09:38;;;;;;;18.35;9.45;;;7.40;96.00;;;;;;5022711;28;20216;-69
2021/11/20 01:12:18;;;;;;;17.23;8.68;;;7.40;95.90;;;;;;5021917;28;20145;-69
2021/11/20 01:14:45;;;;;;;20.25;9.52;;;7.50;95.90;;;;;;5023083;28;20026;-69
2021/11/20 01:17:11;;;;;;;;;;;7.40;96.00;;;;;;5022978;28;20319;-69
2021/11/20 01:19:37;;;;;;;17.13;8.60;;;7.50;96.10;;;;;;5022997;28;19906;-69
2021/11/20 01:22:07;;;;;;;18.90;8.20;;;7.50;95.90;;;;;;5022418;28;20033;-69
2021/11/20 01:24:33;;;;;;;19.52;8.45;;;7.60;95.60;;;;;;5021978;28;20095;-69
2021/11/20 01:26:59;;;;;;;17.47;9.13;;;7.60;95.60;;;;;;5023045;28;20021;-69
2021/11/20 01:29:26;;;;;;;21.13;9.85;;;7.60;95.50;;;;;;5022894;28;20021;-69
2021/11/20 01:31:52;;;;;;;;;;;7.60;95.50;;;;;;5023083;28;20021;-69
2021/11/20 01:34:18;;;;;;;19.02;9.25;;;7.60;95.50;;;;;;5022810;28;19910;-69
2021/11/20 01:36:45;;;;;;;20.25;9.35;;;7.60;95.50;;;;;;5005081;28;20052;-69
2021/11/20 01:39:15;;;;;;;19.20;9.73;;;7.60;95.40;;;;;;5022756;28;20329;-69
2021/11/20 01:41:42;;;;;;;24.00;11.48;;;7.60;95.30;;;;;;5026357;28;20026;-68
2021/11/20 01:44:15;;;;;;;23.30;11.32;;;7.60;95.30;;;;;;5029333;28;20320;-69
2021/11/20 01:46:47;;;;;;;22.10;10.02;;;7.60;95.40;;;;;;5029265;28;20075;-69
2021/11/20 01:49:22;;;;;;;21.85;10.45;;;7.60;95.50;;;;;;5029232;28;20344;-70
2021/11/20 01:52:06;;;;;;;23.10;10.70;;;7.50;95.60;;;;;;5028606;28;20320;-69
2021/11/20 01:54:45;;;;;;;23.00;9.48;;;7.60;95.60;;;;;;5028099;28;20269;-69
2021/11/20 01:57:38;;;;;;;19.83;9.40;;;7.60;95.30;;;;;;5028857;28;20260;-69
2021/11/20 02:00:40;;;;;;;22.75;10.38;;;7.60;95.30;;;;;;5028975;28;20357;-69
2021/11/20 02:03:15;;;;;;;22.02;9.50;;;7.70;95.30;;;;;;5029129;28;20324;-69
2021/11/20 02:06:14;;;;;;;23.60;10.30;;;7.70;95.20;;;;;;5028894;28;20032;-69
2021/11/20 02:09:02;;;;;;;19.83;9.15;;;7.60;95.20;;;;;;5027537;28;20021;-69
2021/11/20 02:11:47;;;;;;;22.98;10.02;;;7.70;95.20;;;;;;5028552;28;20029;-69
2021/11/20 02:14:14;;;;;;;23.42;10.15;;;7.70;95.20;;;;;;5028529;28;20038;-69
2021/11/20 02:16:46;;;;;;;23.77;10.30;;;7.70;95.20;;;;;;5028914;28;20045;-69
2021/11/20 02:19:18;;;;;;;21.08;10.57;;;7.70;95.20;;;;;;5027923;28;20033;-69
2021/11/20 02:21:59;;;;;;;22.35;10.88;;;7.70;95.10;;;;;;5027431;28;20052;-69
2021/11/20 02:24:24;;;;;;;23.55;10.43;;;7.70;95.10;;;;;;5027857;28;20140;-69
2021/11/20 02:26:50;;;;;;;21.80;10.00;;;7.60;95.20;;;;;;5028974;28;20029;-71
2021/11/20 02:29:16;;;;;;;24.83;10.30;;;7.70;95.30;;;;;;5025458;28;20378;-71
2021/11/20 02:32:02;;;;;;;28.30;12.82;;;7.70;95.20;;;;;;5027765;28;20026;-71
2021/11/20 02:34:33;;;;;;;22.15;11.07;;;7.70;95.20;;;;;;5027914;28;20022;-71
2021/11/20 02:36:58;;;;;;;23.35;10.35;;;7.70;95.20;;;;;;5026959;28;20041;-71
2021/11/20 02:39:27;;;;;;;25.23;10.93;;;7.70;95.10;;;;;;5012159;28;20026;-71
2021/11/20 02:41:56;;;;;;;23.70;11.02;;;7.70;95.00;;;;;;4991527;28;20048;-70
2021/11/20 02:44:23;;;;;;;23.95;10.85;;;7.80;94.90;;;;;;5008871;28;20273;-71
2021/11/20 02:46:53;;;;;;;26.35;10.68;;;7.80;94.80;;;;;;5008471;28;20036;-71
2021/11/20 02:49:19;;;;;;;26.60;12.25;;;7.70;94.90;;;;;;5007762;28;20089;-71
2021/11/20 02:51:59;;;;;;;23.80;11.03;;;7.70;94.90;;;;;;5005836;28;20030;-71
2021/11/20 02:54:26;;;;;;;25.50;11.25;;;7.70;94.90;;;;;;5005918;28;20049;-71
2021/11/20 02:57:12;;;;;;;27.10;11.55;;;7.70;94.90;;;;;;5004640;28;20089;-71
2021/11/20 02:59:38;;;;;;;25.48;11.02;;;7.80;94.90;;;;;;4975640;28;20090;-71
2021/11/20 03:02:04;;;;;;;27.53;11.60;;;7.80;94.80;;;;;;5005386;28;20060;-71
2021/11/20 03:04:30;;;;;;;29.57;14.67;;;7.80;94.80;;;;;;5004545;28;20075;-70
2021/11/20 03:06:58;;;;;;;25.63;10.82;;;7.80;94.70;;;;;;5005149;28;20266;-71
2021/11/20 03:09:26;;;;;;;25.42;11.50;;;7.60;95.00;;;;;;5019591;28;20076;-70
2021/11/20 03:11:52;;;;;;;25.35;11.90;;;7.60;95.20;;;;;;5023446;28;20249;-70
2021/11/20 03:14:18;;;;;;;28.87;12.40;;;7.50;95.30;;;;;;5024926;28;20026;-71
2021/11/20 03:16:50;;;;;;;27.77;12.98;;;7.50;95.40;;;;;;5023933;28;20352;-70
2021/11/20 03:19:16;;;;;;;26.98;12.65;;;7.50;95.30;;;;;;5025081;28;20022;-71
2021/11/20 03:21:46;;;;;;;29.25;12.88;;;7.40;95.60;;;;;;5023484;28;20022;-71
2021/11/20 03:24:14;;;;;;;26.48;10.90;;;7.40;95.70;;;;;;5023717;28;20426;-70
2021/11/20 03:26:43;;;;;;;24.48;11.65;;;7.40;95.60;;;;;;5023615;28;20034;-71
2021/11/20 03:29:09;;;;;;;28.65;12.38;;;7.40;95.70;;;;;;5023826;28;20018;-71
2021/11/20 03:31:35;;;;;;;26.50;12.35;;;7.40;95.70;;;;;;5023008;28;20052;-70
2021/11/20 03:34:01;;;;;;;27.48;11.65;;;7.30;95.70;;;;;;5024792;28;20037;-70
2021/11/20 03:36:27;;;;;;;31.92;11.45;;;7.40;95.80;;;;;;5024466;28;20022;-70
2021/11/20 03:38:53;;;;;;;27.63;12.90;;;7.30;95.80;;;;;;5023729;28;20014;-70
2021/11/20 03:41:18;;;;;;;27.67;12.38;;;7.30;95.80;;;;;;5024316;28;20018;-70
2021/11/20 03:43:45;;;;;;;26.27;11.95;;;7.30;95.80;;;;;;5023382;28;20045;-70
2021/11/20 03:46:11;;;;;;;30.48;12.27;;;7.40;95.60;;;;;;5023338;28;20028;-71
2021/11/20 03:48:36;;;;;;;28.35;11.95;;;7.40;95.70;;;;;;5023579;28;20236;-70
2021/11/20 03:51:03;;;;;;;28.38;12.88;;;7.30;95.70;;;;;;5023493;28;20021;-70
2021/11/20 03:53:29;;;;;;;;;;;7.40;95.60;;;;;;5023816;28;20022;-70
2021/11/20 03:55:55;;;;;;;26.02;11.32;;;7.50;95.50;;;;;;5024306;28;19905;-70
2021/11/20 03:58:21;;;;;;;29.60;11.77;;;7.40;95.60;;;;;;5024344;28;20032;-70
2021/11/20 04:01:00;;;;;;;27.75;11.85;;;7.50;95.50;;;;;;5022951;28;20315;-71
2021/11/20 04:03:27;;;;;;;25.90;12.10;;;7.50;95.30;;;;;;5023126;28;20092;-70
2021/11/20 04:05:54;;;;;;;29.83;11.85;;;7.50;95.50;;;;;;5023993;28;20084;-70
2021/11/20 04:08:20;;;;;;;26.95;11.93;;;7.50;95.50;;;;;;5024008;28;20037;-70
2021/11/20 04:10:48;;;;;;;25.83;11.43;;;7.50;95.30;;;;;;5023510;28;20067;-70
2021/11/20 04:13:14;;;;;;;28.42;12.25;;;7.50;95.40;;;;;;5022768;28;20025;-70
2021/11/20 04:15:40;;;;;;;27.52;11.85;;;7.50;95.40;;;;;;5022997;28;20030;-71
2021/11/20 04:18:06;;;;;;;30.45;13.65;;;7.50;95.40;;;;;;5023957;28;20272;-71
2021/11/20 04:20:33;;;;;;;29.77;12.82;;;7.50;95.30;;;;;;5023813;28;20034;-71
2021/11/20 04:22:59;;;;;;;27.90;12.98;;;7.50;95.30;;;;;;5023743;28;20236;-70
2021/11/20 04:25:24;;;;;;;28.88;12.50;;;7.50;95.30;;;;;;5022520;28;20037;-70
2021/11/20 04:27:50;;;;;;;27.90;11.80;;;7.50;95.30;;;;;;5023705;28;20026;-70
2021/11/20 04:30:16;;;;;;;24.88;11.32;;;7.50;95.30;;;;;;5023644;28;20067;-70
2021/11/20 04:32:42;;;;;;;31.10;13.32;;;7.50;95.20;;;;;;5023363;28;20089;-70
2021/11/20 04:35:09;;;;;;;26.33;10.80;;;7.50;95.20;;;;;;5022725;28;20265;-70
2021/11/20 04:37:35;;;;;;;29.52;12.43;;;7.50;95.40;;;;;;5016719;28;20079;-71
2021/11/20 04:40:01;;;;;;;29.03;12.03;;;7.50;95.30;;;;;;5018025;28;20022;-71
2021/11/20 04:42:27;;;;;;;30.45;13.05;;;7.40;95.40;;;;;;5020195;28;20519;-71
2021/11/20 04:44:52;;;;;;;27.30;11.93;;;7.40;95.40;;;;;;5020440;28;20090;-70
2021/11/20 04:47:18;;;;;;;27.88;12.27;;;7.40;95.40;;;;;;5018242;28;20030;-71
2021/11/20 04:49:44;;;;;;;27.70;11.63;;;7.50;95.40;;;;;;5023018;28;20355;-71
2021/11/20 04:52:13;;;;;;;28.67;12.43;;;7.50;95.20;;;;;;5021251;28;20037;-70
2021/11/20 04:54:39;;;;;;;25.55;11.05;;;7.40;95.50;;;;;;5020760;28;20049;-70
2021/11/20 04:57:05;;;;;;;28.33;12.45;;;7.40;95.60;;;;;;5016784;28;20056;-71
2021/11/20 04:59:31;;;;;;;30.48;13.30;;;7.40;95.60;;;;;;5016363;28;20033;-71
2021/11/20 05:01:58;;;;;;;28.95;13.30;;;7.40;95.50;;;;;;5022438;28;20088;-71
2021/11/20 05:04:24;;;;;;;26.25;10.93;;;7.40;95.40;;;;;;5022339;28;20033;-71
2021/11/20 05:06:49;;;;;;;28.73;11.90;;;7.50;95.40;;;;;;5021723;28;20084;-70
2021/11/20 05:09:15;;;;;;;28.63;12.77;;;7.50;95.30;;;;;;5021943;28;20080;-71
2021/11/20 05:11:43;;;;;;;26.03;12.33;;;7.50;95.30;;;;;;5022271;28;20093;-71
2021/11/20 05:14:09;;;;;;;27.63;11.98;;;7.60;95.10;;;;;;5021874;28;20030;-71
2021/11/20 05:16:38;;;;;;;26.27;12.50;;;7.60;95.10;;;;;;5021553;28;20022;-71
2021/11/20 05:19:06;;;;;;;25.98;12.00;;;7.60;95.10;;;;;;5021812;28;20048;-71
2021/11/20 05:21:33;;;;;;;27.65;12.20;;;7.60;95.10;;;;;;5022360;28;20026;-71
2021/11/20 05:23:58;;;;;;;30.17;12.63;;;7.60;95.00;;;;;;5021895;28;20329;-70
2021/11/20 05:26:24;;;;;;;26.05;11.43;;;7.60;95.00;;;;;;5021593;28;20284;-70
2021/11/20 05:29:03;;;;;;;28.58;12.93;;;7.60;95.10;;;;;;5021713;28;20265;-70
2021/11/20 05:31:29;;;;;;;32.00;13.10;;;7.60;95.20;;;;;;5021230;28;20030;-71
2021/11/20 05:33:55;;;;;;;28.53;12.43;;;7.60;95.20;;;;;;5022666;28;20210;-71
2021/11/20 05:36:26;;;;;;;27.83;12.80;;;7.60;95.20;;;;;;5005131;28;20022;-71
2021/11/20 05:38:52;;;;;;;26.77;12.55;;;7.60;95.10;;;;;;5021458;28;20057;-70
2021/11/20 05:41:18;;;;;;;26.40;12.17;;;7.50;95.10;;;;;;5021477;28;20017;-70
2021/11/20 05:43:44;;;;;;;29.27;12.10;;;7.50;95.20;;;;;;5022726;28;20463;-70
2021/11/20 05:46:22;;;;;;;25.70;11.68;;;7.60;95.10;;;;;;5021375;28;20076;-70
2021/11/20 05:48:47;;;;;;;25.25;11.63;;;7.60;95.10;;;;;;5022607;28;20028;-71
2021/11/20 05:51:13;;;;;;;28.58;13.18;;;7.60;95.10;;;;;;5020617;28;20034;-72
2021/11/20 05:53:39;;;;;;;26.57;12.63;;;7.70;94.90;;;;;;5021359;28;20022;-71
2021/11/20 05:56:05;;;;;;;30.95;13.20;;;7.70;95.00;;;;;;5021470;28;20065;-71
2021/11/20 05:58:31;;;;;;;28.75;12.65;;;7.70;94.90;;;;;;5022489;28;20324;-71
2021/11/20 06:01:01;;;;;;;26.90;12.38;;;7.70;95.10;;;;;;5022305;28;20321;-71
2021/11/20 06:03:27;;;;;;;29.55;11.43;;;7.70;94.80;;;;;;5020909;28;20030;-71
2021/11/20 06:05:53;;;;;;;28.80;12.10;;;7.70;94.80;;;;;;5021235;28;20025;-71
2021/11/20 06:08:20;;;;;;;27.13;12.02;;;7.70;94.80;;;;;;5020516;28;20321;-71
2021/11/20 06:10:45;;;;;;;;;;;7.60;94.90;;;;;;5021360;28;20026;-70
2021/11/20 06:13:11;;;;;;;25.67;11.02;;;7.70;94.90;;;;;;5022109;28;19912;-70
2021/11/20 06:15:38;;;;;;;27.10;11.63;;;7.70;94.90;;;;;;5021327;28;20356;-71
2021/11/20 06:18:04;;;;;;;23.60;10.95;;;7.70;94.80;;;;;;5022342;28;20037;-69
2021/11/20 06:20:31;;;;;;;29.33;12.73;;;7.70;94.80;;;;;;5022049;28;20037;-71
2021/11/20 06:22:57;;;;;;;27.65;12.98;;;7.80;94.90;;;;;;5022296;28;20663;-70
2021/11/20 06:25:23;;;;;;;27.27;12.60;;;7.80;94.60;;;;;;5021138;28;20091;-70
2021/11/20 06:27:50;;;;;;;27.02;12.60;;;7.80;94.50;;;;;;5023352;28;20344;-71
2021/11/20 06:30:19;;;;;;;26.40;11.93;;;7.80;94.60;;;;;;5024660;28;20032;-70
2021/11/20 06:32:47;;;;;;;26.92;12.80;;;7.70;94.70;;;;;;5024573;28;20041;-70
2021/11/20 06:35:15;;;;;;;28.23;11.60;;;7.70;94.70;;;;;;5024805;28;20216;-70
2021/11/20 06:37:42;;;;;;;27.27;11.63;;;7.60;94.80;;;;;;5024695;28;20022;-70
2021/11/20 06:40:21;;;;;;;27.63;11.68;;;7.50;95.00;;;;;;5024560;28;20335;-70
2021/11/20 06:42:47;;;;;;;27.95;12.07;;;7.60;95.10;;;;;;5024818;28;20029;-70
2021/11/20 06:45:23;;;;;;;29.70;13.17;;;7.50;95.10;;;;;;5024603;28;20051;-70
2021/11/20 06:47:49;;;;;;;28.05;13.02;;;7.60;94.90;;;;;;5024592;28;20455;-70
2021/11/20 06:50:15;;;;;;;30.65;13.82;;;7.50;95.10;;;;;;5024264;28;20033;-70
2021/11/20 06:52:41;;;;;;;29.73;13.80;;;7.60;95.20;;;;;;5024791;28;20228;-70
2021/11/20 06:55:07;;;;;;;25.55;11.38;;;7.60;95.10;;;;;;5025592;28;20234;-70
2021/11/20 06:57:55;;;;;;;31.75;13.13;;;7.60;95.00;;;;;;5007820;28;20021;-71
2021/11/20 07:00:31;;;;;;;35.05;14.57;;;7.60;94.90;;;;;;5024010;28;20028;-71
2021/11/20 07:03:27;;;;;;;35.13;14.90;;;7.60;95.00;;;;;;5024458;28;20022;-71
2021/11/20 07:05:56;;;;;;;30.13;11.98;;;7.60;95.00;;;;;;5025056;28;20387;-71
2021/11/20 07:08:23;;;;;;;29.88;13.15;;;7.70;95.00;;;;;;5024076;28;20084;-71
2021/11/20 07:10:50;;;;;;;28.65;12.40;;;7.70;94.90;;;;;;5023630;28;20026;-71
2021/11/20 07:13:16;;;;;;;31.65;13.05;;;7.70;94.80;;;;;;5024905;28;20021;-71
2021/11/20 07:15:42;;;;;;;27.52;12.20;;;7.70;95.00;;;;;;5025109;28;20093;-71
2021/11/20 07:18:08;;;;;;;28.80;12.68;;;7.70;95.00;;;;;;5025172;28;20014;-70
2021/11/20 07:20:35;;;;;;;33.73;13.23;;;7.70;95.00;;;;;;5024550;28;20038;-71
2021/11/20 07:23:01;;;;;;;;;;;7.70;95.00;;;;;;5025257;28;20272;-71
2021/11/20 07:25:27;;;;;;;26.58;11.55;;;7.80;94.80;;;;;;5024906;28;20240;-70
2021/11/20 07:27:54;;;;;;;29.33;11.68;;;7.80;94.70;;;;;;5024989;28;20253;-72
2021/11/20 07:30:20;;;;;;;26.88;11.35;;;7.80;94.60;;;;;;5023496;28;20108;-71
2021/11/20 07:32:46;;;;;;;26.35;11.50;;;7.80;94.70;;;;;;5023203;28;20028;-71
2021/11/20 07:35:13;;;;;;;30.00;11.97;;;7.80;94.60;;;;;;5023673;28;20038;-69
2021/11/20 07:37:39;;;;;;;29.13;12.35;;;7.70;94.50;;;;;;5007047;28;20202;-71
2021/11/20 07:40:06;;;;;;;32.23;12.60;;;7.80;94.60;;;;;;5023963;28;20029;-71
2021/11/20 07:42:32;;;;;;;32.15;14.35;;;7.80;94.60;;;;;;5023219;28;20105;-71
2021/11/20 07:45:02;;;;;;;34.63;16.03;;;7.80;94.40;;;;;;5023565;28;20030;-71
2021/11/20 07:47:29;;;;;;;34.78;15.40;;;7.80;94.50;;;;;;5024220;28;20067;-71
2021/11/20 07:49:55;;;;;;;35.95;15.30;;;7.80;94.50;;;;;;5024335;28;20093;-71
2021/11/20 07:52:21;;;;;;;28.30;13.85;;;7.80;94.50;;;;;;5022239;28;20030;-71
2021/11/20 07:54:46;;;;;;;31.85;13.20;;;7.80;94.60;;;;;;5024208;28;20025;-70
2021/11/20 07:57:12;;;;;;;32.63;12.38;;;7.70;94.80;;;;;;5023225;28;20328;-70
2021/11/20 07:59:41;;;;;;;25.52;11.70;;;7.80;94.80;;;;;;5024214;28;20048;-70
2021/11/20 08:02:07;;;;;;;31.45;12.52;;;7.80;94.70;;;;;;5023170;28;20026;-70
2021/11/20 08:04:36;;;;;;;35.63;16.08;;;7.90;94.60;;;;;;5024190;28;20033;-70
2021/11/20 08:07:06;;;;;;;29.48;14.27;;;7.90;94.50;;;;;;5022678;28;20053;-70
2021/11/20 08:09:32;;;;;;;36.08;15.07;;;8.00;94.30;;;;;;5022865;28;20325;-71
2021/11/20 08:11:59;;;;;;;28.60;13.73;;;8.00;94.20;;;;;;5023603;28;20028;-71
2021/11/20 08:14:25;;;;;;;;;;;8.00;94.20;;;;;;5024923;28;20026;-72
2021/11/20 08:16:50;;;;;;;27.50;12.25;;;8.00;94.20;;;;;;5024025;28;19912;-72
2021/11/20 08:19:17;;;;;;;26.25;11.35;;;7.90;94.10;;;;;;5023999;28;20037;-72
2021/11/20 08:21:43;;;;;;;31.52;12.77;;;8.00;94.20;;;;;;5023179;28;20033;-71
2021/11/20 08:24:09;;;;;;;26.43;12.47;;;8.00;94.30;;;;;;5022831;28;20026;-70
2021/11/20 08:26:36;;;;;;;30.67;13.10;;;8.00;94.10;;;;;;5023630;28;20025;-71
2021/11/20 08:29:05;;;;;;;26.83;11.20;;;8.10;94.10;;;;;;5022785;28;20024;-71
2021/11/20 08:31:33;;;;;;;29.42;12.60;;;8.10;94.00;;;;;;5023102;28;20053;-71
2021/11/20 08:34:00;;;;;;;32.30;15.52;;;8.10;94.10;;;;;;5022230;28;20053;-71
2021/11/20 08:36:25;;;;;;;35.10;17.05;;;8.10;93.90;;;;;;5023629;28;20025;-71
2021/11/20 08:38:51;;;;;;;31.80;13.35;;;8.00;94.00;;;;;;5023334;28;20304;-72
2021/11/20 08:41:17;;;;;;;25.23;11.60;;;8.10;93.90;;;;;;5023199;28;20079;-72
2021/11/20 08:43:43;;;;;;;29.92;12.98;;;8.20;93.80;;;;;;5023657;28;20080;-72
2021/11/20 08:46:09;;;;;;;28.03;12.27;;;8.30;93.70;;;;;;5023428;28;20045;-72
2021/11/20 08:48:35;;;;;;;24.92;10.95;;;8.30;93.50;;;;;;5022264;28;20268;-72
2021/11/20 08:51:12;;;;;;;27.00;12.73;;;8.30;93.50;;;;;;5020827;28;20252;-72
2021/11/20 08:53:37;;;;;;;23.87;10.93;;;8.20;93.60;;;;;;5021662;28;20026;-72
2021/11/20 08:56:03;;;;;;;25.83;11.83;;;8.20;93.50;;;;;;5022264;28;20041;-72
2021/11/20 08:58:31;;;;;;;29.17;11.93;;;8.20;93.40;;;;;;5022104;28;20026;-72
2021/11/20 09:01:05;;;;;;;26.48;11.85;;;8.20;93.40;;;;;;5022788;28;20025;-72
2021/11/20 09:03:40;;;;;;;24.40;11.82;;;8.20;93.50;;;;;;5021714;28;20244;-71
2021/11/20 09:06:52;;;;;;;28.65;11.63;;;8.20;93.30;;;;;;5022078;28;20030;-72
2021/11/20 09:09:34;;;;;;;24.45;10.18;;;8.30;93.10;;;;;;4982059;28;20042;-72
2021/11/20 09:12:05;;;;;;;30.25;12.93;;;8.20;93.30;;;;;;4999617;28;20038;-71
2021/11/20 09:14:46;;;;;;;27.08;11.93;;;8.20;93.20;;;;;;5003157;28;20076;-72
2021/11/20 09:17:13;;;;;;;26.83;11.40;;;8.30;92.90;;;;;;4987272;28;20052;-71
2021/11/20 09:19:39;;;;;;;34.28;13.27;;;8.30;92.90;;;;;;5003388;28;20041;-71
2021/11/20 09:22:05;;;;;;;38.27;18.17;;;8.30;93.00;;;;;;5002451;28;20033;-71
2021/11/20 09:24:35;;;;;;;32.03;14.07;;;8.40;93.10;;;;;;5003215;28;20022;-65
2021/11/20 09:27:01;;;;;;;26.65;11.95;;;8.50;93.00;;;;;;5005438;28;20340;-65
2021/11/20 09:29:29;;;;;;;30.40;12.93;;;8.60;92.70;;;;;;5022475;28;20026;-66
2021/11/20 09:31:55;;;;;;;26.60;11.75;;;8.60;92.70;;;;;;5004662;28;20026;-66
2021/11/20 09:34:21;;;;;;;27.65;12.43;;;8.60;92.70;;;;;;5022549;28;20026;-66
2021/11/20 09:36:49;;;;;;;25.52;11.55;;;8.60;92.60;;;;;;5022643;28;20045;-66
2021/11/20 09:39:16;;;;;;;27.33;12.32;;;8.70;92.60;;;;;;5022106;28;20021;-66
2021/11/20 09:42:16;;;;;;;;;;;8.70;92.50;;;;;;5021540;28;20285;-67
2021/11/20 09:44:46;;;;;;;40.78;19.42;;;8.70;92.70;;;;;;5022725;28;19905;-66
2021/11/20 09:47:34;;;;;;;41.92;21.92;;;8.80;92.40;;;;;;5022351;28;20030;-66
2021/11/20 09:50:27;;;;;;;30.58;14.25;;;8.80;92.30;;;;;;5022844;28;20089;-67
2021/11/20 09:52:53;;;;;;;27.23;12.43;;;8.80;92.10;;;;;;5021264;28;20072;-67
2021/11/20 09:55:32;;;;;;;26.47;12.00;;;8.80;92.30;;;;;;5022206;28;20041;-72
2021/11/20 09:58:33;;;;;;;28.00;12.15;;;8.90;92.20;;;;;;5021220;28;20022;-71
2021/11/20 10:01:20;;;;;;;26.58;12.35;;;8.90;92.10;;;;;;5013503;28;20034;-70
2021/11/20 10:04:04;;;;;;;26.63;11.68;;;8.90;92.10;;;;;;5026575;28;20032;-71
2021/11/20 10:06:33;;;;;;;26.35;11.30;;;9.00;92.00;;;;;;5026111;28;20087;-71
2021/11/20 10:09:20;;;;;;;27.70;11.65;;;9.00;92.10;;;;;;5025329;28;20205;-71
2021/11/20 10:12:16;;;;;;;27.85;11.57;;;9.10;92.00;;;;;;5025642;28;20029;-72
2021/11/20 10:15:15;;;;;;;28.58;12.43;;;9.10;91.70;;;;;;5024627;28;20033;-72
2021/11/20 10:17:56;;;;;;;26.65;12.20;;;9.10;91.90;;;;;;5023761;28;20037;-71
2021/11/20 10:20:25;;;;;;;23.80;11.40;;;9.00;91.40;;;;;;5025340;28;20049;-71
2021/11/20 10:23:36;;;;;;;25.67;11.60;;;9.00;91.60;;;;;;5024171;28;20030;-71
2021/11/20 10:26:23;;;;;;;27.02;12.35;;;9.00;91.70;;;;;;5017899;28;20073;-71
2021/11/20 10:29:20;;;;;;;23.13;11.53;;;9.10;91.70;;;;;;5024740;28;20026;-71
2021/11/20 10:32:25;;;;;;;28.10;11.85;;;9.10;91.50;;;;;;5024936;28;20034;-71
2021/11/20 10:35:15;;;;;;;27.50;12.55;;;9.20;91.60;;;;;;5019888;28;20392;-71
2021/11/20 10:38:11;;;;;;;23.42;12.20;;;9.20;91.70;;;;;;5024403;28;20029;-71
2021/11/20 10:40:55;;;;;;;23.13;10.50;;;9.20;91.40;;;;;;5018427;28;20037;-71
2021/11/20 10:43:33;;;;;;;25.45;11.90;;;9.20;91.20;;;;;;5025144;28;20041;-71
2021/11/20 10:46:11;;;;;;;;;;;9.30;91.00;;;;;;5025705;28;20022;-71
2021/11/20 10:48:48;;;;;;;26.63;11.73;;;9.40;90.50;;;;;;5025298;28;19928;-71
2021/11/20 10:51:50;;;;;;;24.88;11.25;;;9.40;90.50;;;;;;5024804;28;20025;-71
2021/11/20 10:55:05;;;;;;;25.30;11.65;;;9.40;90.80;;;;;;5025121;28;20022;-71
2021/11/20 10:58:18;;;;;;;25.92;11.40;;;9.40;90.80;;;;;;5022661;28;20018;-72
2021/11/20 11:01:34;;;;;;;25.33;10.73;;;9.50;90.50;;;;;;5004936;28;20113;-71
2021/11/20 11:04:28;;;;;;;40.25;18.85;;;9.40;90.60;;;;;;4998731;28;20054;-71
2021/11/20 11:06:56;;;;;;;30.02;14.20;;;9.30;90.90;;;;;;5005305;28;20089;-71
2021/11/20 11:09:46;;;;;;;25.67;12.45;;;9.40;90.90;;;;;;5007966;28;20032;-71
2021/11/20 11:12:24;;;;;;;27.85;12.32;;;9.40;90.90;;;;;;5023576;28;20022;-71
2021/11/20 11:15:11;;;;;;;30.73;12.52;;;9.20;91.20;;;;;;5022747;28;20336;-72
2021/11/20 11:18:20;;;;;;;26.35;11.88;;;9.20;91.40;;;;;;5023743;28;20026;-71
2021/11/20 11:21:23;;;;;;;24.77;12.15;;;9.30;91.30;;;;;;5023132;28;20030;-72
2021/11/20 11:24:22;;;;;;;23.27;11.07;;;9.50;90.80;;;;;;5023706;28;20252;-71
2021/11/20 11:27:24;;;;;;;28.30;13.38;;;9.30;91.00;;;;;;5023620;28;20324;-71
2021/11/20 11:29:58;;;;;;;27.08;12.70;;;9.20;91.50;;;;;;5022618;28;20446;-71
2021/11/20 11:32:25;;;;;;;25.60;11.95;;;9.50;90.80;;;;;;5023421;28;20328;-71
2021/11/20 11:34:55;;;;;;;26.95;12.63;;;9.60;90.60;;;;;;5024238;28;20040;-71
2021/11/20 11:38:29;;;;;;;25.88;11.73;;;9.60;90.50;;;;;;5023472;28;20018;-71
2021/11/20 11:41:18;;;;;;;29.92;12.93;;;9.50;90.40;;;;;;4992994;28;20375;-71
2021/11/20 11:44:12;;;;;;;24.90;12.05;;;9.50;90.90;;;;;;5023262;28;20022;-71
2021/11/20 11:46:55;;;;;;;23.85;11.02;;;9.60;90.70;;;;;;5024000;28;20022;-71
2021/11/20 11:49:49;;;;;;;24.13;11.18;;;9.60;90.80;;;;;;5024001;28;20113;-71
2021/11/20 11:52:30;;;;;;;24.90;12.57;;;9.70;90.20;;;;;;5022566;28;20030;-71
2021/11/20 11:55:14;;;;;;;24.63;12.18;;;9.60;90.40;;;;;;5023725;28;20026;-71
2021/11/20 11:58:05;;;;;;;28.50;13.38;;;9.80;90.60;;;;;;5023808;28;20309;-70
2021/11/20 12:00:43;;;;;;;30.92;14.52;;;9.80;90.40;;;;;;5013297;28;20034;-71
2021/11/20 12:03:35;;;;;;;26.23;12.77;;;9.90;90.40;;;;;;5004903;28;20022;-76
2021/11/20 12:06:34;;;;;;;26.38;12.15;;;9.70;90.70;;;;;;5001905;28;20101;-75
2021/11/20 12:09:21;;;;;;;;;;;9.80;90.50;;;;;;5002541;28;20329;-74
2021/11/20 12:11:47;;;;;;;24.60;11.55;;;9.90;90.40;;;;;;5018203;28;19929;-68
2021/11/20 12:14:28;;;;;;;25.75;11.75;;;9.90;90.20;;;;;;4985760;28;20095;-69
2021/11/20 12:17:21;;;;;;;26.20;12.88;;;9.90;90.20;;;;;;5003089;28;20113;-75
2021/11/20 12:20:13;;;;;;;26.75;12.55;;;9.90;90.10;;;;;;5003941;28;20329;-75
2021/11/20 12:23:48;;;;;;;24.02;11.70;;;10.00;90.00;;;;;;5002505;28;20072;-73
2021/11/20 12:26:20;;;;;;;22.75;10.90;;;10.00;89.60;;;;;;4978231;28;20038;-74
2021/11/20 12:28:59;;;;;;;25.08;12.48;;;9.90;90.00;;;;;;5005117;28;20245;-76
2021/11/20 12:31:51;;;;;;;22.75;12.48;;;9.90;90.20;;;;;;5006974;28;20022;-75
2021/11/20 12:35:05;;;;;;;27.00;13.13;;;9.60;91.20;;;;;;5017207;28;20045;-71
2021/11/20 12:37:54;;;;;;;24.92;11.60;;;9.70;90.70;;;;;;5021075;28;20034;-71
2021/11/20 12:40:34;;;;;;;27.50;12.25;;;9.70;90.60;;;;;;5022632;28;20030;-70
2021/11/20 12:44:02;;;;;;;23.63;11.95;;;9.60;90.80;;;;;;5021126;28;20072;-70
2021/11/20 12:47:06;;;;;;;28.13;11.10;;;9.60;91.00;;;;;;5022552;28;20068;-71
2021/11/20 12:49:44;;;;;;;23.77;11.63;;;9.80;90.60;;;;;;5022528;28;20022;-74
2021/11/20 12:52:34;;;;;;;24.70;11.77;;;9.90;89.40;;;;;;5005279;28;20029;-74
2021/11/20 12:55:17;;;;;;;31.20;13.43;;;10.00;89.50;;;;;;4989560;28;20034;-74
2021/11/20 12:57:52;;;;;;;29.88;12.85;;;10.00;88.90;;;;;;5021962;28;20308;-74
2021/11/20 13:00:30;;;;;;;23.45;12.25;;;10.10;88.50;;;;;;5014586;28;20045;-74
2021/11/20 13:03:10;;;;;;;25.15;11.57;;;10.00;88.70;;;;;;5033723;28;20080;-75
2021/11/20 13:05:49;;;;;;;24.38;12.00;;;9.90;89.60;;;;;;5015145;28;20089;-67
2021/11/20 13:08:32;;;;;;;23.40;11.98;;;9.80;90.00;;;;;;5021397;28;20040;-67
2021/11/20 13:11:22;;;;;;;22.40;11.18;;;9.80;87.70;;;;;;5020583;28;20018;-68
2021/11/20 13:14:25;;;;;;;36.28;16.75;;;9.80;87.70;;;;;;5022418;28;20026;-69